Weather at Wadi Al Dawasir Airport

Public forecast

Using degrees Celsius for public forecast. Weather courtesy of forecast.io.

Current aviation weather report (METAR) for Wadi Al Dawasir Airport

Retrieved 2021/04/13 20:17 UTC (5 minutes ago):

OEWD 132017Z 27008G18KT 3000 BLDU SCT030 BKN100 32/16 Q1012

Aviation forecast (TAF) for Wadi Al Dawasir Airport

Forecast is more than 6 hours old.

Retrieved 2021/04/13 12:06 UTC (8 hours ago):

TAF OEWD 131100Z 1312/1418 19006KT CAVOK BECMG 1318/1320 34012KT 9999 FEW035 SCT100 BECMG 1400/1402 VRB03KT